KFKL

Venango Regional Airport

Franklin, Pennsylvania, USA
METAR KFKL 170256Z AUTO 22010KT 10SM CLR 05/01 A3004 RMK AO2 SLP182 6//// T00500011 58001
Observed Flight Rules
Oct-17 @ 02:56 UTC (21 minutes ago) Visual Flight Rules
Wind Visibility Clouds
220° at 10 knots 10 miles
  • Clear skies
Temperatures Readings
Current 5°C / 41°F
Dewpoint 1°C / 34°F
Humidity 76%
Altimeter 30.04" Hg
Pressure 1018.2 hPa
Elevation 469
METAR KFKL 170256Z AUTO 22010KT 10SM CLR 05/01 A3004 RMK AO2 SLP182 6//// T00500011 58001
Observed Flight Rules
Oct-17 @ 02:56 UTC
(21 minutes ago)
VFR
Wind Visibility
220° at 10 knots 10 miles
Clouds
  • Clear skies
Temperature Dewpoint
5°C / 41°F 1°C / 34°F
Humidity Altimeter Pressure
76% 30.04" Hg 1018.2 hPa